Time;durP1;ratioP1;P1;durP2;ratioP2;P2;SDS_P1;SDS_P2;PMS_P1;PMS_P2;Temp;Humidity;BMP_temperature;BMP_pressure;BME280_temperature;BME280_humidity;BME280_pressure;Samples;Min_cycle;Max_cycle;Signal;HPM_P1;HPM_P2
2023/04/21 00:00:09;;;;;;;35.13;23.42;;;10.90;83.20;;;10.19;67.41;100428.63;5053759;28;20079;-75
2023/04/21 00:02:38;;;;;;;34.08;21.67;;;10.90;83.40;;;10.19;67.31;100436.63;5050614;28;20045;-76
2023/04/21 00:05:08;;;;;;;35.92;23.55;;;10.90;83.20;;;10.20;67.29;100432.94;5038595;28;20045;-77
2023/04/21 00:07:37;;;;;;;34.35;22.52;;;10.90;83.10;;;10.20;67.07;100433.78;5043112;28;20072;-75
2023/04/21 00:10:07;;;;;;;36.03;23.73;;;10.90;83.30;;;10.20;67.33;100431.13;5045785;28;20048;-75
2023/04/21 00:12:36;;;;;;;36.35;22.60;;;10.90;83.50;;;10.20;67.32;100431.13;5044184;28;20064;-75
2023/04/21 00:15:03;;;;;;;34.80;23.25;;;10.90;83.60;;;10.19;67.42;100416.13;5041517;28;20047;-76
2023/04/21 00:17:31;;;;;;;40.33;25.75;;;10.90;83.50;;;10.18;67.43;100430.50;5046133;28;20150;-76
2023/04/21 00:19:58;;;;;;;37.78;24.48;;;11.10;83.60;;;10.18;67.46;100425.16;5049253;28;20045;-75
2023/04/21 00:22:25;;;;;;;40.47;25.27;;;10.90;83.70;;;10.18;67.85;100427.81;5044981;28;20033;-75
2023/04/21 00:24:53;;;;;;;35.58;23.38;;;10.90;84.00;;;10.17;67.78;100415.53;5047757;28;20045;-75
2023/04/21 00:27:20;;;;;;;37.55;23.55;;;10.90;83.80;;;10.17;67.74;100404.88;5046181;28;20076;-75
2023/04/21 00:29:48;;;;;;;39.30;25.90;;;10.80;83.70;;;10.15;67.85;100412.28;5056877;28;20143;-74
2023/04/21 00:32:16;;;;;;;39.88;25.83;;;10.80;83.80;;;10.17;67.70;100407.53;5051851;28;20121;-76
2023/04/21 00:34:43;;;;;;;39.65;26.27;;;10.90;83.90;;;10.15;67.82;100396.28;5027655;28;20053;-75
2023/04/21 00:37:12;;;;;;;41.20;26.77;;;10.80;84.10;;;10.15;68.17;100390.13;5053900;28;20519;-75
2023/04/21 00:39:40;;;;;;;44.35;27.92;;;10.80;84.30;;;10.13;68.11;100393.00;5045695;28;20045;-76
2023/04/21 00:42:07;;;;;;;39.53;24.42;;;10.90;84.10;;;10.11;68.07;100381.75;5043926;28;20105;-76
2023/04/21 00:44:36;;;;;;;41.97;26.90;;;10.80;83.90;;;10.11;68.08;100381.75;5048436;28;20580;-76
2023/04/21 00:47:05;;;;;;;37.97;25.73;;;10.90;84.10;;;10.11;68.29;100384.41;5031884;28;20452;-75
2023/04/21 00:49:33;;;;;;;40.92;26.40;;;10.90;84.30;;;10.12;68.32;100382.56;5039082;28;20126;-74
2023/04/21 00:52:00;;;;;;;39.85;27.02;;;10.90;84.30;;;10.12;68.36;100393.22;5047767;28;20611;-76
2023/04/21 00:54:28;;;;;;;38.83;26.77;;;10.90;84.40;;;10.11;68.28;100392.41;5018355;28;20040;-75
2023/04/21 00:56:57;;;;;;;42.63;26.50;;;10.90;84.70;;;10.13;68.32;100393.00;5043665;28;20413;-75
2023/04/21 00:59:24;;;;;;;37.65;25.48;;;10.90;84.70;;;10.12;68.23;100388.69;5043352;28;20052;-76
2023/04/21 01:01:52;;;;;;;43.45;26.50;;;10.80;84.60;;;10.11;68.54;100389.75;5039215;28;20118;-75
2023/04/21 01:04:22;;;;;;;41.63;27.23;;;10.80;84.50;;;10.09;68.44;100389.09;5042646;28;20045;-76
2023/04/21 01:06:50;;;;;;;41.58;26.98;;;10.80;84.50;;;10.07;69.13;100381.34;5046409;28;20068;-75
2023/04/21 01:09:17;;;;;;;40.78;27.13;;;10.80;84.90;;;10.07;68.74;100383.19;5047037;28;20128;-76
2023/04/21 01:12:02;;;;;;;42.55;27.42;;;10.80;84.70;;;10.10;68.72;100377.41;5056999;28;20041;-76
2023/04/21 01:14:29;;;;;;;41.63;26.88;;;10.80;85.20;;;10.10;69.08;100373.94;5057221;28;20068;-74
2023/04/21 01:16:57;;;;;;;44.85;28.27;;;10.80;85.50;;;10.06;69.19;100386.88;5032580;28;20061;-75
2023/04/21 01:19:30;;;;;;;41.55;27.77;;;10.70;85.40;;;10.04;69.07;100381.75;5029082;28;20052;-75
2023/04/21 01:22:00;;;;;;;44.55;29.10;;;10.90;85.50;;;10.05;69.02;100374.56;5061638;28;20083;-75
2023/04/21 01:24:38;;;;;;;42.90;26.67;;;10.70;85.10;;;10.05;69.11;100366.56;5057189;28;20098;-75
2023/04/21 01:27:10;;;;;;;44.30;27.90;;;10.80;85.30;;;10.05;69.39;100366.56;5047971;28;20056;-75
2023/04/21 01:29:38;;;;;;;45.10;28.25;;;10.70;85.90;;;10.02;69.52;100357.16;5032001;28;20063;-76
2023/04/21 01:32:08;;;;;;;44.78;28.42;;;10.70;85.40;;;10.02;69.69;100359.84;5040481;28;20051;-74
2023/04/21 01:34:36;;;;;;;50.50;29.60;;;10.70;85.90;;;9.99;69.63;100365.56;5035200;28;20153;-74
2023/04/21 01:37:08;;;;;;;41.85;27.60;;;10.70;86.10;;;9.99;69.84;100370.09;5040907;28;20041;-75
2023/04/21 01:39:38;;;;;;;43.80;28.23;;;10.70;85.90;;;10.01;69.71;100384.03;5020240;28;20067;-76
2023/04/21 01:42:07;;;;;;;42.63;26.63;;;10.70;85.90;;;10.01;69.79;100373.38;5009565;28;20103;-75
2023/04/21 01:44:36;;;;;;;45.45;28.70;;;10.70;86.20;;;10.01;69.72;100374.19;5020138;28;20168;-75
2023/04/21 01:47:04;;;;;;;44.78;28.23;;;10.70;86.00;;;10.01;69.68;100374.19;5022074;28;20072;-75
2023/04/21 01:49:31;;;;;;;46.25;28.15;;;10.70;85.80;;;10.03;69.83;100365.97;5012480;28;20051;-74
2023/04/21 01:51:58;;;;;;;44.13;27.10;;;10.70;85.90;;;10.03;70.13;100357.97;5041837;28;20076;-74
2023/04/21 01:54:27;;;;;;;45.38;28.27;;;10.70;86.40;;;10.04;70.04;100354.28;5045142;28;20053;-76
2023/04/21 01:56:55;;;;;;;45.15;28.15;;;10.70;86.10;;;10.05;69.83;100358.56;5027490;28;20045;-75
2023/04/21 01:59:22;;;;;;;42.97;28.13;;;10.70;85.80;;;10.04;69.92;100363.09;5018878;28;20052;-75
2023/04/21 02:01:49;;;;;;;48.03;29.92;;;10.80;85.80;;;10.05;69.97;100361.25;5007072;28;20456;-75
2023/04/21 02:04:16;;;;;;;45.80;28.42;;;10.80;85.90;;;10.06;70.00;100361.06;5017110;28;20045;-76
2023/04/21 02:06:44;;;;;;;44.53;27.48;;;10.80;86.00;;;10.07;70.07;100359.19;5012568;28;20148;-76
2023/04/21 02:09:11;;;;;;;45.92;29.25;;;10.80;86.10;;;10.09;70.03;100364.31;5026442;28;20050;-75
2023/04/21 02:11:40;;;;;;;42.35;27.67;;;10.80;86.10;;;10.09;70.17;100356.31;5016690;28;20042;-76
2023/04/21 02:14:07;;;;;;;52.47;30.45;;;10.80;86.30;;;10.09;70.17;100365.13;5008683;28;20087;-76
2023/04/21 02:16:34;;;;;;;46.17;29.25;;;10.80;86.30;;;10.09;69.92;100365.13;5018939;28;20045;-76
2023/04/21 02:19:01;;;;;;;45.17;27.50;;;10.80;86.10;;;10.08;70.04;100358.16;5001580;28;20049;-76
2023/04/21 02:21:29;;;;;;;45.72;28.58;;;10.80;85.90;;;10.07;70.04;100368.00;5011296;28;20096;-75
2023/04/21 02:23:56;;;;;;;48.58;28.40;;;10.80;85.80;;;10.08;70.03;100363.50;5018546;28;20807;-75
2023/04/21 02:26:26;;;;;;;46.33;29.40;;;10.80;85.70;;;10.07;70.19;100360.00;5012653;28;20045;-75
2023/04/21 02:28:55;;;;;;;42.35;26.95;;;10.80;85.80;;;10.08;70.01;100355.50;5004294;28;20581;-75
2023/04/21 02:31:22;;;;;;;46.65;27.58;;;10.90;85.90;;;10.06;70.19;100350.41;5002199;28;20090;-75
2023/04/21 02:33:49;;;;;;;42.30;28.17;;;10.90;86.00;;;10.06;70.16;100357.56;5017936;28;20084;-75
2023/04/21 02:36:17;;;;;;;41.28;27.00;;;10.90;85.90;;;10.06;70.53;100353.06;5032271;28;20045;-75
2023/04/21 02:38:44;;;;;;;45.28;28.48;;;10.80;85.90;;;10.06;70.44;100354.91;5042645;28;20185;-76
2023/04/21 02:41:11;;;;;;;48.10;28.38;;;10.90;86.00;;;10.08;70.70;100355.50;5027642;28;20049;-75
2023/04/21 02:43:40;;;;;;;44.78;27.98;;;10.90;86.10;;;10.10;70.33;100350.78;5045696;28;20136;-75
2023/04/21 02:46:09;;;;;;;45.67;29.00;;;10.90;86.20;;;10.12;70.44;100353.25;5022145;28;20516;-75
2023/04/21 02:48:36;;;;;;;45.72;28.13;;;10.90;86.10;;;10.12;70.34;100347.91;5031495;28;20696;-74
2023/04/21 02:51:04;;;;;;;47.60;29.55;;;10.90;86.10;;;10.12;70.42;100351.41;5046299;28;20597;-74
2023/04/21 02:53:31;;;;;;;45.28;28.10;;;10.90;86.10;;;10.13;70.33;100358.34;5030718;28;20517;-75
2023/04/21 02:56:01;;;;;;;48.00;29.23;;;10.90;85.90;;;10.14;70.30;100359.16;5047481;28;20049;-75
2023/04/21 02:58:30;;;;;;;44.95;28.40;;;10.90;86.10;;;10.12;70.58;100350.56;5053109;28;20136;-75
2023/04/21 03:00:58;;;;;;;47.13;28.85;;;10.90;86.30;;;10.13;70.58;100341.53;5036496;28;20528;-75
2023/04/21 03:03:26;;;;;;;47.10;29.58;;;10.90;86.10;;;10.13;70.54;100349.53;5046866;28;20069;-75
2023/04/21 03:05:57;;;;;;;47.28;29.38;;;10.90;86.30;;;10.13;70.55;100345.03;5049239;28;20528;-75
2023/04/21 03:08:25;;;;;;;49.83;29.85;;;10.90;86.30;;;10.13;70.57;100347.69;5046621;28;20053;-75
2023/04/21 03:10:52;;;;;;;48.28;31.17;;;10.90;86.30;;;10.14;70.71;100356.50;5047914;28;20049;-75
2023/04/21 03:13:23;;;;;;;47.08;29.10;;;10.90;86.30;;;10.14;70.55;100357.31;5048734;28;20049;-76
2023/04/21 03:15:52;;;;;;;48.60;29.38;;;10.90;86.40;;;10.15;70.79;100350.13;5048496;28;20037;-76
2023/04/21 03:18:19;;;;;;;44.92;28.92;;;10.90;86.30;;;10.15;70.55;100355.47;5029872;28;20041;-76
2023/04/21 03:20:48;;;;;;;50.28;30.45;;;10.90;86.20;;;10.14;70.72;100357.31;5046706;28;20053;-76
2023/04/21 03:23:15;;;;;;;49.47;29.20;;;10.90;86.10;;;10.14;70.80;100359.97;5047738;28;20036;-76
2023/04/21 03:25:43;;;;;;;50.05;30.85;;;10.90;86.30;;;10.15;70.68;100361.63;5030798;28;20045;-75
2023/04/21 03:28:10;;;;;;;47.35;28.75;;;10.90;86.30;;;10.17;70.94;100358.75;5030364;28;20186;-76
2023/04/21 03:30:37;;;;;;;48.30;30.17;;;10.90;86.50;;;10.15;70.91;100361.63;5045898;28;20057;-75
2023/04/21 03:33:05;;;;;;;49.70;30.65;;;10.90;86.50;;;10.15;70.92;100361.63;5048208;28;20067;-76
2023/04/21 03:35:34;;;;;;;50.15;31.02;;;10.90;86.30;;;10.16;70.82;100362.47;5046183;28;20053;-74
2023/04/21 03:38:02;;;;;;;49.15;30.55;;;10.90;86.60;;;10.14;70.73;100353.84;5050349;28;20094;-75
2023/04/21 03:40:30;;;;;;;50.90;31.13;;;10.90;86.50;;;10.14;70.86;100348.50;5043069;28;20037;-76
2023/04/21 03:42:57;;;;;;;47.63;29.50;;;10.90;86.60;;;10.15;70.94;100348.31;5041460;28;20055;-75
2023/04/21 03:45:25;;;;;;;48.28;30.42;;;10.90;86.50;;;10.15;70.94;100350.97;5043055;28;20072;-74
2023/04/21 03:47:54;;;;;;;52.53;30.48;;;10.90;86.60;;;10.15;70.92;100340.31;5047608;28;20045;-75
2023/04/21 03:50:22;;;;;;;52.58;31.15;;;10.90;86.70;;;10.15;70.82;100345.66;5041210;28;20120;-76
2023/04/21 03:52:49;;;;;;;51.00;31.40;;;10.90;86.50;;;10.14;70.98;100345.84;5047803;28;20055;-75
2023/04/21 03:55:18;;;;;;;48.20;30.42;;;10.90;86.70;;;10.14;70.77;100351.16;5046803;28;20496;-75
2023/04/21 03:57:45;;;;;;;48.58;29.83;;;10.90;86.50;;;10.16;70.64;100341.94;5041712;28;20496;-76
2023/04/21 04:00:14;;;;;;;47.83;30.48;;;10.90;86.50;;;10.16;70.89;100346.47;5046989;28;20037;-75
2023/04/21 04:02:42;;;;;;;50.97;32.00;;;10.90;86.70;;;10.17;70.57;100345.44;5037082;28;20047;-75
2023/04/21 04:05:09;;;;;;;50.90;31.70;;;10.90;86.70;;;10.16;70.62;100343.81;5045282;28;20139;-75
2023/04/21 04:07:36;;;;;;;48.75;30.45;;;10.90;86.50;;;10.15;70.58;100345.66;5046816;28;20037;-76
2023/04/21 04:10:04;;;;;;;52.05;31.25;;;11.00;86.90;;;10.14;70.79;100352.00;5047019;28;20136;-78
2023/04/21 04:12:33;;;;;;;50.30;31.50;;;10.90;86.70;;;10.13;70.91;100347.69;5047518;28;20037;-74
2023/04/21 04:15:00;;;;;;;49.13;31.05;;;10.90;86.70;;;10.13;70.89;100347.69;5045909;28;20040;-75
2023/04/21 04:17:27;;;;;;;50.58;31.05;;;10.90;86.70;;;10.14;70.80;100348.50;5044250;28;20049;-76
2023/04/21 04:19:55;;;;;;;52.38;32.17;;;10.90;86.70;;;10.14;70.75;100343.19;5048020;28;20076;-74
2023/04/21 04:22:22;;;;;;;51.08;31.15;;;10.90;86.70;;;10.13;70.87;100337.03;5046822;28;20041;-73
2023/04/21 04:24:50;;;;;;;52.75;31.85;;;10.90;86.70;;;10.13;70.91;100338.88;5047037;28;20076;-73
2023/04/21 04:27:19;;;;;;;50.22;30.23;;;10.90;86.70;;;10.13;71.11;100336.22;5046250;28;20045;-75
2023/04/21 04:29:48;;;;;;;52.83;31.98;;;10.90;86.90;;;10.13;70.93;100326.38;5046729;28;20045;-74
2023/04/21 04:32:15;;;;;;;51.95;31.75;;;10.90;86.90;;;10.11;71.02;100323.13;5051726;28;20123;-73
2023/04/21 04:34:42;;;;;;;53.78;32.83;;;10.90;86.90;;;10.13;70.74;100333.56;5051579;28;20147;-73
2023/04/21 04:37:10;;;;;;;52.65;32.25;;;11.00;87.10;;;10.12;70.80;100343.41;5066314;22;20172;-79
2023/04/21 04:39:37;;;;;;;55.55;33.70;;;10.90;86.90;;;10.11;71.10;100338.28;5071397;28;20589;-80
2023/04/21 04:42:08;;;;;;;49.75;32.50;;;10.80;86.70;;;10.10;70.92;100336.63;5068659;28;20537;-80
2023/04/21 04:44:36;;;;;;;;;;;10.80;86.70;;;10.10;71.10;100344.63;5073072;28;20044;-76
2023/04/21 04:47:06;;;;;;;53.03;32.53;;;10.90;86.70;;;10.09;70.92;100343.81;5076919;28;19935;-78
2023/04/21 04:49:33;;;;;;;55.63;31.27;;;10.90;86.80;;;10.08;70.89;100350.19;5060974;28;20517;-77
2023/04/21 04:52:00;;;;;;;52.08;31.67;;;10.80;86.70;;;10.06;70.96;100344.25;5066436;28;20515;-79
2023/04/21 04:54:28;;;;;;;56.95;33.17;;;10.90;86.70;;;10.06;70.98;100344.25;5056453;28;20044;-79
2023/04/21 04:56:56;;;;;;;53.33;32.08;;;10.80;86.70;;;10.04;70.96;100343.63;5070323;28;20052;-79
2023/04/21 04:59:23;;;;;;;52.42;33.33;;;10.80;86.70;;;10.03;71.03;100350.00;5069173;28;20060;-77
2023/04/21 05:01:51;;;;;;;51.33;32.63;;;10.80;86.70;;;10.00;71.16;100353.91;5075839;28;20075;-78
2023/04/21 05:04:19;;;;;;;54.35;32.83;;;10.80;86.50;;;10.00;70.92;100355.72;5085621;28;20086;-78
2023/04/21 05:06:47;;;;;;;51.58;32.63;;;10.80;86.50;;;10.00;70.76;100355.72;5070427;28;20071;-78
2023/04/21 05:09:16;;;;;;;54.20;33.67;;;10.80;86.60;;;10.00;71.05;100347.72;5059631;28;20044;-79
2023/04/21 05:11:44;;;;;;;53.30;33.10;;;10.80;86.70;;;9.99;70.96;100346.09;5063561;28;20075;-79
2023/04/21 05:14:11;;;;;;;51.70;32.33;;;10.80;86.70;;;9.98;71.01;100355.94;5067817;28;20044;-79
2023/04/21 05:16:38;;;;;;;53.30;32.15;;;10.70;86.70;;;9.96;71.05;100363.34;5067624;28;20115;-77
2023/04/21 05:19:05;;;;;;;54.65;32.60;;;10.80;86.70;;;9.95;71.18;100358.19;5070044;28;20493;-76
2023/04/21 05:21:34;;;;;;;50.75;31.73;;;10.70;86.70;;;9.95;71.08;100347.53;5059669;28;20037;-78
2023/04/21 05:24:01;;;;;;;49.80;29.98;;;10.70;86.70;;;9.94;70.98;100354.72;5071024;28;20044;-77
2023/04/21 05:26:30;;;;;;;49.53;30.13;;;10.90;86.70;;;9.91;70.87;100359.69;5064547;28;20044;-78
2023/04/21 05:28:58;;;;;;;49.80;30.83;;;10.70;86.60;;;9.90;70.87;100352.69;5065639;28;20412;-79
2023/04/21 05:31:26;;;;;;;48.20;31.17;;;10.70;86.50;;;9.93;70.77;100352.28;5070577;28;20412;-80
2023/04/21 05:33:53;;;;;;;46.35;30.65;;;10.70;86.30;;;9.95;70.79;100356.34;5063359;28;20029;-80
2023/04/21 05:36:20;;;;;;;50.72;31.88;;;10.80;86.40;;;9.97;70.74;100351.66;5063301;28;20080;-82
2023/04/21 05:38:49;;;;;;;52.88;32.70;;;10.80;86.30;;;10.00;70.90;100358.38;5070596;28;20508;-78
2023/04/21 05:41:16;;;;;;;47.88;31.73;;;10.80;86.50;;;10.03;70.99;100357.97;5064848;28;20043;-80
2023/04/21 05:43:43;;;;;;;55.03;33.47;;;10.80;86.70;;;10.07;71.14;100367.19;5069870;28;20048;-79
2023/04/21 05:46:11;;;;;;;57.38;35.53;;;10.80;86.70;;;10.12;71.17;100363.91;5068433;28;20044;-79
2023/04/21 05:48:39;;;;;;;57.40;34.10;;;10.90;86.70;;;10.19;71.11;100362.84;5065743;28;20123;-78
2023/04/21 05:51:09;;;;;;;53.90;33.58;;;10.90;86.70;;;10.28;71.67;100366.94;5066959;28;20044;-78
2023/04/21 05:53:37;;;;;;;57.65;34.35;;;11.00;87.70;;;10.33;71.59;100363.63;5068952;28;20032;-78
2023/04/21 05:56:08;;;;;;;54.88;32.97;;;11.00;87.60;;;10.36;71.96;100368.53;5057161;28;20044;-79
2023/04/21 05:58:35;;;;;;;57.65;35.28;;;11.00;88.00;;;10.36;71.49;100359.75;5069333;28;20123;-80
2023/04/21 06:01:03;;;;;;;58.17;34.92;;;11.10;87.60;;;10.37;71.56;100366.69;5069493;28;20048;-79
2023/04/21 06:03:31;;;;;;;55.25;33.25;;;11.10;87.50;;;10.37;71.54;100370.19;5068387;28;20045;-79
2023/04/21 06:05:59;;;;;;;59.95;35.60;;;11.10;87.50;;;10.39;71.87;100356.63;5075238;28;20062;-79
2023/04/21 06:08:27;;;;;;;59.95;35.20;;;11.10;87.70;;;10.43;71.97;100368.50;5075374;28;20524;-80
2023/04/21 06:10:54;;;;;;;59.50;36.88;;;11.10;87.90;;;10.45;71.47;100366.47;5054085;28;20040;-79
2023/04/21 06:13:23;;;;;;;52.75;33.45;;;11.10;87.70;;;10.48;71.54;100369.50;5066912;28;20746;-79
2023/04/21 06:15:50;;;;;;;59.53;35.53;;;11.20;87.50;;;10.53;71.58;100371.53;5062816;28;20040;-79
2023/04/21 06:18:17;;;;;;;54.97;35.33;;;11.20;88.00;;;10.58;71.63;100361.03;5069324;28;20115;-78
2023/04/21 06:20:51;;;;;;;57.28;36.58;;;11.30;88.20;;;10.63;72.21;100358.53;5072736;28;20547;-79
2023/04/21 06:23:18;;;;;;;57.80;35.67;;;11.30;88.30;;;10.67;72.12;100358.94;5067862;28;20419;-79
2023/04/21 06:25:45;;;;;;;52.30;33.75;;;11.30;88.60;;;10.68;72.21;100360.56;5068508;28;20127;-82
2023/04/21 06:28:12;;;;;;;57.65;34.42;;;11.30;88.60;;;10.66;71.69;100358.13;5077797;28;20048;-79
2023/04/21 06:30:43;;;;;;;62.72;36.33;;;11.30;88.10;;;10.68;71.94;100356.06;5067545;28;20182;-78
2023/04/21 06:33:10;;;;;;;55.72;35.97;;;11.30;88.50;;;10.72;71.76;100351.13;5066703;28;20488;-79
2023/04/21 06:35:38;;;;;;;61.20;36.95;;;11.40;88.00;;;10.78;71.80;100342.25;5073980;28;20054;-78
2023/04/21 06:38:05;;;;;;;59.45;36.50;;;11.40;88.30;;;10.80;71.37;100342.88;5068760;28;20048;-80
2023/04/21 06:40:32;;;;;;;54.58;34.97;;;11.40;87.50;;;10.80;71.07;100348.19;5068694;28;20131;-79
2023/04/21 06:42:59;;;;;;;56.08;35.47;;;11.40;87.70;;;10.80;71.07;100343.69;5060734;28;20037;-79
2023/04/21 06:45:26;;;;;;;56.03;34.67;;;11.50;87.70;;;10.81;70.97;100339.16;5064333;28;20408;-78
2023/04/21 06:47:55;;;;;;;57.85;35.17;;;11.50;87.50;;;10.81;71.02;100349.81;5054511;28;20306;-80
2023/04/21 06:50:22;;;;;;;60.95;35.50;;;11.50;87.30;;;10.82;71.01;100349.59;5052605;28;20054;-79
2023/04/21 06:52:49;;;;;;;57.50;35.25;;;11.50;87.10;;;10.82;71.17;100348.78;5062780;28;20533;-79
2023/04/21 06:55:17;;;;;;;53.97;34.80;;;11.50;87.70;;;10.84;71.26;100354.75;5055094;28;20040;-77
2023/04/21 06:57:44;;;;;;;59.42;35.47;;;11.50;87.40;;;10.85;71.51;100356.38;5050908;28;20075;-78
2023/04/21 07:00:13;;;;;;;57.95;35.67;;;11.60;87.60;;;10.86;71.42;100365.19;5052630;28;20048;-78
2023/04/21 07:02:41;;;;;;;57.85;34.55;;;11.60;87.40;;;10.87;71.47;100369.50;5058031;28;20041;-80
2023/04/21 07:05:10;;;;;;;55.90;35.08;;;11.50;87.60;;;10.89;71.44;100359.44;5065198;28;20682;-79
2023/04/21 07:07:37;;;;;;;59.90;36.28;;;11.60;87.70;;;10.90;71.56;100363.72;5060557;28;20045;-78
2023/04/21 07:10:06;;;;;;;59.58;36.15;;;11.60;87.80;;;10.87;71.71;100356.16;5062706;28;20127;-80
2023/04/21 07:12:33;;;;;;;54.70;34.33;;;11.60;88.00;;;10.88;71.74;100352.44;5063420;28;20039;-77
2023/04/21 07:15:00;;;;;;;56.78;37.15;;;11.60;88.10;;;10.90;71.81;100350.38;5061861;28;20048;-79
2023/04/21 07:17:27;;;;;;;58.08;35.17;;;11.50;88.10;;;10.91;72.08;100349.34;5053435;28;20234;-80
2023/04/21 07:19:54;;;;;;;52.78;33.88;;;11.60;88.20;;;10.93;71.82;100344.59;5058497;28;20055;-83
2023/04/21 07:22:23;;;;;;;58.20;35.90;;;11.60;88.20;;;10.95;72.03;100339.88;5066528;28;20645;-83
2023/04/21 07:24:50;;;;;;;61.10;37.70;;;11.60;88.30;;;10.97;72.54;100337.81;5054007;28;20140;-81
2023/04/21 07:27:18;;;;;;;60.78;37.25;;;11.60;88.20;;;10.98;72.53;100347.44;5049864;28;20132;-81
2023/04/21 07:29:45;;;;;;;64.10;37.38;;;11.70;88.70;;;11.00;72.93;100345.38;5057874;28;20044;-83
2023/04/21 07:32:13;;;;;;;58.47;36.85;;;11.70;89.10;;;11.01;72.57;100355.84;5060098;28;20537;-81
2023/04/21 07:34:40;;;;;;;59.78;38.08;;;11.70;88.60;;;11.04;72.26;100350.06;5052753;28;20094;-82
2023/04/21 07:37:07;;;;;;;57.20;36.67;;;11.70;88.30;;;11.07;72.12;100341.63;5059360;28;20135;-81
2023/04/21 07:39:35;;;;;;;59.67;36.80;;;11.80;88.20;;;11.10;72.01;100343.03;5058038;28;20091;-82
2023/04/21 07:42:06;;;;;;;59.72;37.63;;;11.80;88.20;;;11.12;72.28;100332.16;5067171;28;20458;-82
2023/04/21 07:44:34;;;;;;;62.92;39.58;;;11.80;88.60;;;11.14;72.67;100332.75;5067591;28;20037;-81
2023/04/21 07:47:01;;;;;;;64.47;39.92;;;11.80;88.50;;;11.15;72.44;100329.88;5049057;28;20737;-81
2023/04/21 07:49:28;;;;;;;62.20;38.58;;;11.80;88.50;;;11.18;72.63;100332.09;5080562;28;20124;-82
2023/04/21 07:51:55;;;;;;;61.70;38.70;;;11.80;88.80;;;11.19;72.91;100336.41;5073601;28;20143;-82
2023/04/21 07:54:23;;;;;;;60.80;38.35;;;11.90;89.10;;;11.20;72.98;100330.03;5068153;28;20571;-81
2023/04/21 07:56:51;;;;;;;64.50;39.65;;;11.80;88.90;;;11.20;73.02;100337.22;5071896;28;20510;-80
2023/04/21 07:59:18;;;;;;;62.67;39.80;;;11.90;89.10;;;11.22;72.74;100335.94;5080243;28;20050;-83
2023/04/21 08:01:45;;;;;;;61.97;39.50;;;11.90;89.10;;;11.24;72.88;100327.75;5066709;28;20076;-81
2023/04/21 08:04:13;;;;;;;60.13;37.70;;;11.90;88.70;;;11.28;73.04;100334.28;5068130;28;20139;-81
2023/04/21 08:06:40;;;;;;;62.63;38.60;;;12.00;89.00;;;11.28;73.31;100324.41;5053718;28;20037;-81
2023/04/21 08:09:07;;;;;;;64.57;38.95;;;12.00;89.30;;;11.29;73.31;100336.72;5062678;28;20036;-83
2023/04/21 08:11:34;;;;;;;62.13;39.47;;;12.00;89.30;;;11.32;73.11;100341.63;5060749;28;20068;-83
2023/04/21 08:14:03;;;;;;;56.83;36.90;;;12.00;88.90;;;11.35;73.31;100343.03;5067281;28;20124;-81
2023/04/21 08:16:30;;;;;;;59.97;36.28;;;12.00;89.20;;;11.36;73.47;100333.97;5067791;28;20039;-80
2023/04/21 08:18:57;;;;;;;54.53;36.05;;;12.00;89.40;;;11.40;72.86;100324.50;5068443;28;20083;-79
2023/04/21 08:21:25;;;;;;;63.22;39.53;;;12.10;88.80;;;11.42;72.87;100322.44;5062544;28;20214;-80
2023/04/21 08:23:54;;;;;;;61.13;37.80;;;12.10;88.80;;;11.44;73.51;100343.59;5058467;28;20143;-82
2023/04/21 08:26:21;;;;;;;63.78;38.63;;;12.10;89.30;;;11.44;73.59;100340.91;5062035;28;20138;-81
2023/04/21 08:28:50;;;;;;;60.50;37.90;;;12.10;89.40;;;11.47;73.25;100348.50;5061596;28;20040;-81
2023/04/21 08:31:19;;;;;;;61.58;38.88;;;12.10;89.10;;;11.49;72.86;100346.41;5064997;28;20040;-81
2023/04/21 08:33:47;;;;;;;69.00;36.55;;;12.20;88.70;;;11.51;73.30;100344.31;5067173;28;20123;-82
2023/04/21 08:36:14;;;;;;;57.60;36.60;;;12.20;89.10;;;11.53;73.38;100342.25;5067906;28;20048;-80
2023/04/21 08:38:43;;;;;;;60.33;38.58;;;12.20;89.20;;;11.54;73.31;100338.53;5063032;28;20079;-81
2023/04/21 08:41:11;;;;;;;64.43;40.25;;;12.20;89.10;;;11.58;72.87;100342.41;5067254;28;20086;-82
2023/04/21 08:43:38;;;;;;;62.13;38.97;;;12.30;89.00;;;11.60;73.17;100343.00;5065057;28;20111;-81
2023/04/21 08:46:08;;;;;;;64.95;42.03;;;12.30;89.10;;;11.63;73.38;100339.91;5065977;28;20120;-81
2023/04/21 08:48:38;;;;;;;62.78;38.20;;;12.30;89.60;;;11.66;73.60;100335.94;5066365;28;20059;-80
2023/04/21 08:51:10;;;;;;;64.60;40.40;;;12.30;89.90;;;11.70;73.70;100339.81;5075185;28;20067;-81
2023/04/21 08:53:37;;;;;;;60.72;37.10;;;12.40;89.20;;;11.71;73.60;100338.78;5067191;28;20076;-81
2023/04/21 08:56:05;;;;;;;52.53;34.50;;;12.40;89.10;;;11.73;73.53;100337.53;5077430;28;20404;-81
2023/04/21 08:58:32;;;;;;;53.70;35.97;;;12.50;89.20;;;11.75;73.55;100343.47;5066740;28;20147;-81
2023/04/21 09:01:00;;;;;;;52.20;36.05;;;12.50;89.10;;;11.77;73.84;100346.75;5066144;28;20155;-81
2023/04/21 09:03:28;;;;;;;55.85;36.65;;;12.50;89.50;;;11.76;73.15;100342.44;5066609;28;20072;-81
2023/04/21 09:06:01;;;;;;;54.45;34.97;;;12.50;89.10;;;11.77;73.33;100341.41;5067434;28;20405;-80
2023/04/21 09:08:29;;;;;;;52.05;35.78;;;12.50;88.80;;;11.79;72.68;100346.50;5053568;28;20032;-82
2023/04/21 09:10:58;;;;;;;56.13;36.42;;;12.50;88.50;;;11.82;73.79;100346.09;5066878;28;20048;-80
2023/04/21 09:13:31;;;;;;;51.50;35.47;;;12.60;89.30;;;11.85;73.43;100348.31;5068199;28;20045;-81
2023/04/21 09:15:59;;;;;;;58.05;35.85;;;12.60;88.90;;;11.85;73.13;100338.44;5074427;28;20063;-80
2023/04/21 09:18:33;;;;;;;54.63;35.55;;;12.60;88.70;;;11.90;73.36;100339.63;5079608;28;20098;-85
2023/04/21 09:21:10;;;;;;;57.85;35.20;;;12.60;89.00;;;11.93;73.67;100341.88;5075596;28;20145;-81
2023/04/21 09:23:46;;;;;;;50.83;34.28;;;12.60;89.40;;;11.92;73.50;100334.91;5070461;28;20147;-81
2023/04/21 09:26:14;;;;;;;49.55;33.75;;;12.60;88.90;;;11.94;73.24;100335.47;5071380;28;20127;-81
2023/04/21 09:28:42;;;;;;;52.42;32.15;;;12.70;88.90;;;11.95;73.26;100326.41;5069798;28;20051;-81
2023/04/21 09:31:19;;;;;;;48.78;32.97;;;12.70;88.90;;;11.97;73.15;100335.03;5069276;28;20048;-79
2023/04/21 09:33:48;;;;;;;53.33;35.03;;;12.70;88.90;;;12.01;74.46;100338.91;5067677;28;20047;-82
2023/04/21 09:36:24;;;;;;;55.55;33.95;;;12.70;89.80;;;12.03;74.55;100337.63;5070035;28;20105;-84
2023/04/21 09:39:04;;;;;;;50.70;32.45;;;12.80;90.00;;;12.06;74.46;100336.38;5066514;28;20047;-83
2023/04/21 09:41:32;;;;;;;48.50;32.08;;;12.80;89.80;;;12.09;74.62;100338.59;5069775;28;20055;-83
2023/04/21 09:44:00;;;;;;;49.53;32.17;;;12.90;89.70;;;12.12;74.23;100322.09;5070366;28;20040;-84
2023/04/21 09:46:32;;;;;;;52.83;32.53;;;12.90;89.70;;;12.16;75.27;100331.31;5068572;28;20036;-83
2023/04/21 09:49:01;;;;;;;46.63;30.40;;;12.90;91.00;;;12.22;75.13;100334.94;5066408;28;20040;-84
2023/04/21 09:51:31;;;;;;;46.67;29.83;;;13.00;90.20;;;12.25;74.95;100334.47;5069856;28;20119;-81
2023/04/21 09:54:06;;;;;;;43.63;29.98;;;13.00;89.70;;;12.27;73.67;100338.56;5068712;28;20072;-82
2023/04/21 09:56:37;;;;;;;45.60;30.23;;;13.00;88.90;;;12.28;73.08;100334.84;5054214;28;20123;-82
2023/04/21 09:59:11;;;;;;;43.10;29.38;;;13.00;88.50;;;12.31;73.97;100337.09;5073918;28;20131;-83
2023/04/21 10:01:39;;;;;;;46.33;29.80;;;13.10;89.30;;;12.31;73.21;100331.72;5063257;28;20072;-83
2023/04/21 10:04:07;;;;;;;42.88;28.35;;;13.10;88.30;;;12.32;71.95;100327.19;5058755;28;20114;-83